sensor_id;sensor_type;location;lat;lon;timestamp;P1;durP1;ratioP1;P2;durP2;ratioP2
77191;SDS011;66172;48.526;8.078;2023-09-30T00:01:18;7.22;;;1.92;;
77191;SDS011;66172;48.526;8.078;2023-09-30T00:03:44;9.17;;;2.33;;
77191;SDS011;66172;48.526;8.078;2023-09-30T00:06:10;9.27;;;2.22;;
77191;SDS011;66172;48.526;8.078;2023-09-30T00:08:36;7.47;;;2.13;;
77191;SDS011;66172;48.526;8.078;2023-09-30T00:11:05;9.52;;;2.15;;
77191;SDS011;66172;48.526;8.078;2023-09-30T00:13:31;8.67;;;2.50;;
77191;SDS011;66172;48.526;8.078;2023-09-30T00:15:57;8.13;;;1.90;;
77191;SDS011;66172;48.526;8.078;2023-09-30T00:18:23;8.40;;;2.30;;
77191;SDS011;66172;48.526;8.078;2023-09-30T00:20:49;8.05;;;2.08;;
77191;SDS011;66172;48.526;8.078;2023-09-30T00:23:15;8.03;;;2.03;;
77191;SDS011;66172;48.526;8.078;2023-09-30T00:25:41;8.80;;;2.17;;
77191;SDS011;66172;48.526;8.078;2023-09-30T00:28:07;8.18;;;2.20;;
77191;SDS011;66172;48.526;8.078;2023-09-30T00:30:33;7.00;;;1.58;;
77191;SDS011;66172;48.526;8.078;2023-09-30T00:32:59;8.73;;;1.67;;
77191;SDS011;66172;48.526;8.078;2023-09-30T00:35:25;6.65;;;1.58;;
77191;SDS011;66172;48.526;8.078;2023-09-30T00:37:51;8.25;;;2.00;;
77191;SDS011;66172;48.526;8.078;2023-09-30T00:40:17;7.47;;;1.85;;
77191;SDS011;66172;48.526;8.078;2023-09-30T00:42:43;7.00;;;2.10;;
77191;SDS011;66172;48.526;8.078;2023-09-30T00:45:09;6.20;;;1.63;;
77191;SDS011;66172;48.526;8.078;2023-09-30T00:47:35;8.93;;;1.65;;
77191;SDS011;66172;48.526;8.078;2023-09-30T00:50:02;7.72;;;1.50;;
77191;SDS011;66172;48.526;8.078;2023-09-30T00:52:31;6.78;;;1.70;;
77191;SDS011;66172;48.526;8.078;2023-09-30T00:54:58;6.63;;;2.00;;
77191;SDS011;66172;48.526;8.078;2023-09-30T00:57:24;7.50;;;1.85;;
77191;SDS011;66172;48.526;8.078;2023-09-30T00:59:51;6.78;;;1.70;;
77191;SDS011;66172;48.526;8.078;2023-09-30T01:02:17;6.15;;;1.77;;
77191;SDS011;66172;48.526;8.078;2023-09-30T01:04:44;7.22;;;1.30;;
77191;SDS011;66172;48.526;8.078;2023-09-30T01:07:10;6.53;;;1.60;;
77191;SDS011;66172;48.526;8.078;2023-09-30T01:09:37;5.80;;;1.38;;
77191;SDS011;66172;48.526;8.078;2023-09-30T01:12:04;7.60;;;1.73;;
77191;SDS011;66172;48.526;8.078;2023-09-30T01:14:31;8.50;;;1.40;;
77191;SDS011;66172;48.526;8.078;2023-09-30T01:16:57;6.30;;;2.15;;
77191;SDS011;66172;48.526;8.078;2023-09-30T01:19:26;8.40;;;1.67;;
77191;SDS011;66172;48.526;8.078;2023-09-30T01:21:56;7.85;;;1.75;;
77191;SDS011;66172;48.526;8.078;2023-09-30T01:24:29;5.90;;;1.67;;
77191;SDS011;66172;48.526;8.078;2023-09-30T01:26:55;9.35;;;2.20;;
77191;SDS011;66172;48.526;8.078;2023-09-30T01:29:22;8.77;;;1.90;;
77191;SDS011;66172;48.526;8.078;2023-09-30T01:31:48;8.80;;;1.90;;
77191;SDS011;66172;48.526;8.078;2023-09-30T01:34:15;7.05;;;1.85;;
77191;SDS011;66172;48.526;8.078;2023-09-30T01:36:42;6.53;;;1.83;;
77191;SDS011;66172;48.526;8.078;2023-09-30T01:39:09;7.80;;;2.03;;
77191;SDS011;66172;48.526;8.078;2023-09-30T01:41:39;8.77;;;2.10;;
77191;SDS011;66172;48.526;8.078;2023-09-30T01:44:05;7.83;;;2.27;;
77191;SDS011;66172;48.526;8.078;2023-09-30T01:46:32;7.60;;;2.33;;
77191;SDS011;66172;48.526;8.078;2023-09-30T01:48:57;8.20;;;1.73;;
77191;SDS011;66172;48.526;8.078;2023-09-30T01:51:23;10.35;;;2.03;;
77191;SDS011;66172;48.526;8.078;2023-09-30T01:53:49;8.53;;;1.90;;
77191;SDS011;66172;48.526;8.078;2023-09-30T01:56:15;8.75;;;2.00;;
77191;SDS011;66172;48.526;8.078;2023-09-30T01:58:41;8.63;;;1.58;;
77191;SDS011;66172;48.526;8.078;2023-09-30T02:01:07;6.43;;;1.60;;
77191;SDS011;66172;48.526;8.078;2023-09-30T02:03:34;7.22;;;1.70;;
77191;SDS011;66172;48.526;8.078;2023-09-30T02:06:01;5.50;;;1.50;;
77191;SDS011;66172;48.526;8.078;2023-09-30T02:08:27;7.60;;;1.90;;
77191;SDS011;66172;48.526;8.078;2023-09-30T02:10:53;7.13;;;1.70;;
77191;SDS011;66172;48.526;8.078;2023-09-30T02:13:19;5.83;;;1.73;;
77191;SDS011;66172;48.526;8.078;2023-09-30T02:15:46;6.95;;;1.75;;
77191;SDS011;66172;48.526;8.078;2023-09-30T02:18:11;7.45;;;1.67;;
77191;SDS011;66172;48.526;8.078;2023-09-30T02:20:38;7.68;;;1.60;;
77191;SDS011;66172;48.526;8.078;2023-09-30T02:23:08;6.93;;;1.90;;
77191;SDS011;66172;48.526;8.078;2023-09-30T02:25:39;6.60;;;2.17;;
77191;SDS011;66172;48.526;8.078;2023-09-30T02:28:05;8.40;;;1.90;;
77191;SDS011;66172;48.526;8.078;2023-09-30T02:30:32;6.05;;;1.80;;
77191;SDS011;66172;48.526;8.078;2023-09-30T02:32:58;6.65;;;1.60;;
77191;SDS011;66172;48.526;8.078;2023-09-30T02:35:25;6.13;;;1.80;;
77191;SDS011;66172;48.526;8.078;2023-09-30T02:37:51;6.97;;;1.50;;
77191;SDS011;66172;48.526;8.078;2023-09-30T02:40:17;6.90;;;1.52;;
77191;SDS011;66172;48.526;8.078;2023-09-30T02:42:45;5.38;;;1.70;;
77191;SDS011;66172;48.526;8.078;2023-09-30T02:45:11;6.72;;;1.70;;
77191;SDS011;66172;48.526;8.078;2023-09-30T02:47:38;7.30;;;1.88;;
77191;SDS011;66172;48.526;8.078;2023-09-30T02:50:05;5.83;;;1.57;;
77191;SDS011;66172;48.526;8.078;2023-09-30T02:52:34;6.38;;;1.60;;
77191;SDS011;66172;48.526;8.078;2023-09-30T02:55:00;7.65;;;2.00;;
77191;SDS011;66172;48.526;8.078;2023-09-30T02:57:26;7.25;;;1.92;;
77191;SDS011;66172;48.526;8.078;2023-09-30T02:59:53;6.82;;;1.70;;
77191;SDS011;66172;48.526;8.078;2023-09-30T03:02:20;7.77;;;2.40;;
77191;SDS011;66172;48.526;8.078;2023-09-30T03:04:46;7.55;;;1.75;;
77191;SDS011;66172;48.526;8.078;2023-09-30T03:07:13;8.38;;;2.00;;
77191;SDS011;66172;48.526;8.078;2023-09-30T03:09:39;7.70;;;1.70;;
77191;SDS011;66172;48.526;8.078;2023-09-30T03:12:05;7.30;;;1.97;;
77191;SDS011;66172;48.526;8.078;2023-09-30T03:14:32;5.10;;;1.45;;
77191;SDS011;66172;48.526;8.078;2023-09-30T03:16:58;6.72;;;1.90;;
77191;SDS011;66172;48.526;8.078;2023-09-30T03:19:24;6.65;;;1.92;;
77191;SDS011;66172;48.526;8.078;2023-09-30T03:21:50;6.77;;;1.80;;
77191;SDS011;66172;48.526;8.078;2023-09-30T03:24:16;6.73;;;1.90;;
77191;SDS011;66172;48.526;8.078;2023-09-30T03:26:42;6.30;;;1.90;;
77191;SDS011;66172;48.526;8.078;2023-09-30T03:29:09;6.80;;;2.03;;
77191;SDS011;66172;48.526;8.078;2023-09-30T03:31:35;6.80;;;2.10;;
77191;SDS011;66172;48.526;8.078;2023-09-30T03:34:02;6.10;;;2.20;;
77191;SDS011;66172;48.526;8.078;2023-09-30T03:36:29;6.30;;;1.67;;
77191;SDS011;66172;48.526;8.078;2023-09-30T03:38:55;6.20;;;2.00;;
77191;SDS011;66172;48.526;8.078;2023-09-30T03:41:22;7.28;;;1.70;;
77191;SDS011;66172;48.526;8.078;2023-09-30T03:43:48;10.75;;;1.90;;
77191;SDS011;66172;48.526;8.078;2023-09-30T03:46:15;5.80;;;1.73;;
77191;SDS011;66172;48.526;8.078;2023-09-30T03:48:41;8.27;;;2.00;;
77191;SDS011;66172;48.526;8.078;2023-09-30T03:51:11;6.10;;;1.70;;
77191;SDS011;66172;48.526;8.078;2023-09-30T03:53:43;6.13;;;1.80;;
77191;SDS011;66172;48.526;8.078;2023-09-30T03:56:10;6.25;;;1.52;;
77191;SDS011;66172;48.526;8.078;2023-09-30T03:58:42;8.47;;;2.17;;
77191;SDS011;66172;48.526;8.078;2023-09-30T04:01:09;6.32;;;1.73;;
77191;SDS011;66172;48.526;8.078;2023-09-30T04:03:39;7.90;;;1.80;;
77191;SDS011;66172;48.526;8.078;2023-09-30T04:06:05;6.55;;;1.80;;
77191;SDS011;66172;48.526;8.078;2023-09-30T04:08:34;7.82;;;1.90;;
77191;SDS011;66172;48.526;8.078;2023-09-30T04:11:01;7.27;;;2.00;;
77191;SDS011;66172;48.526;8.078;2023-09-30T04:13:28;7.63;;;2.45;;
77191;SDS011;66172;48.526;8.078;2023-09-30T04:15:58;5.70;;;1.95;;
77191;SDS011;66172;48.526;8.078;2023-09-30T04:18:24;6.85;;;1.92;;
77191;SDS011;66172;48.526;8.078;2023-09-30T04:20:52;7.37;;;2.13;;
77191;SDS011;66172;48.526;8.078;2023-09-30T04:23:18;7.03;;;1.42;;
77191;SDS011;66172;48.526;8.078;2023-09-30T04:25:46;6.30;;;1.75;;
77191;SDS011;66172;48.526;8.078;2023-09-30T04:28:12;6.20;;;1.65;;
77191;SDS011;66172;48.526;8.078;2023-09-30T04:30:39;6.50;;;1.80;;
77191;SDS011;66172;48.526;8.078;2023-09-30T04:33:06;7.10;;;1.83;;
77191;SDS011;66172;48.526;8.078;2023-09-30T04:35:33;6.13;;;1.80;;
77191;SDS011;66172;48.526;8.078;2023-09-30T04:38:01;7.28;;;2.10;;
77191;SDS011;66172;48.526;8.078;2023-09-30T04:40:27;7.07;;;1.90;;
77191;SDS011;66172;48.526;8.078;2023-09-30T04:42:53;6.22;;;1.90;;
77191;SDS011;66172;48.526;8.078;2023-09-30T04:45:24;6.00;;;1.73;;
77191;SDS011;66172;48.526;8.078;2023-09-30T04:47:52;6.15;;;1.52;;
77191;SDS011;66172;48.526;8.078;2023-09-30T04:50:24;6.47;;;1.42;;
77191;SDS011;66172;48.526;8.078;2023-09-30T04:52:52;5.55;;;1.90;;
77191;SDS011;66172;48.526;8.078;2023-09-30T04:55:19;5.90;;;1.90;;
77191;SDS011;66172;48.526;8.078;2023-09-30T04:57:46;6.30;;;1.88;;
77191;SDS011;66172;48.526;8.078;2023-09-30T05:00:13;6.15;;;1.95;;
77191;SDS011;66172;48.526;8.078;2023-09-30T05:02:40;7.57;;;1.55;;
77191;SDS011;66172;48.526;8.078;2023-09-30T05:05:06;5.95;;;1.63;;
77191;SDS011;66172;48.526;8.078;2023-09-30T05:07:32;6.30;;;1.63;;
77191;SDS011;66172;48.526;8.078;2023-09-30T05:09:58;8.00;;;2.03;;
77191;SDS011;66172;48.526;8.078;2023-09-30T05:12:31;5.70;;;1.90;;
77191;SDS011;66172;48.526;8.078;2023-09-30T05:14:58;9.40;;;2.00;;
77191;SDS011;66172;48.526;8.078;2023-09-30T05:17:24;9.63;;;2.00;;
77191;SDS011;66172;48.526;8.078;2023-09-30T05:19:50;7.70;;;2.13;;
77191;SDS011;66172;48.526;8.078;2023-09-30T05:22:16;6.00;;;1.70;;
77191;SDS011;66172;48.526;8.078;2023-09-30T05:24:47;6.80;;;2.10;;
77191;SDS011;66172;48.526;8.078;2023-09-30T05:27:13;7.07;;;2.10;;
77191;SDS011;66172;48.526;8.078;2023-09-30T05:29:39;6.10;;;1.87;;
77191;SDS011;66172;48.526;8.078;2023-09-30T05:32:05;6.90;;;2.10;;
77191;SDS011;66172;48.526;8.078;2023-09-30T05:34:32;7.35;;;2.20;;
77191;SDS011;66172;48.526;8.078;2023-09-30T05:36:58;7.00;;;2.20;;
77191;SDS011;66172;48.526;8.078;2023-09-30T05:39:24;10.27;;;4.65;;
77191;SDS011;66172;48.526;8.078;2023-09-30T05:41:51;8.80;;;3.58;;
77191;SDS011;66172;48.526;8.078;2023-09-30T05:44:16;8.52;;;2.58;;
77191;SDS011;66172;48.526;8.078;2023-09-30T05:46:42;7.57;;;2.80;;
77191;SDS011;66172;48.526;8.078;2023-09-30T05:49:09;9.02;;;1.90;;
77191;SDS011;66172;48.526;8.078;2023-09-30T05:51:39;7.03;;;1.88;;
77191;SDS011;66172;48.526;8.078;2023-09-30T05:54:06;7.07;;;1.95;;
77191;SDS011;66172;48.526;8.078;2023-09-30T05:56:36;5.50;;;1.90;;
77191;SDS011;66172;48.526;8.078;2023-09-30T05:59:04;6.07;;;1.83;;
77191;SDS011;66172;48.526;8.078;2023-09-30T06:01:31;6.70;;;1.73;;
77191;SDS011;66172;48.526;8.078;2023-09-30T06:03:58;7.07;;;2.25;;
77191;SDS011;66172;48.526;8.078;2023-09-30T06:06:25;8.00;;;2.17;;
77191;SDS011;66172;48.526;8.078;2023-09-30T06:08:58;7.78;;;2.30;;
77191;SDS011;66172;48.526;8.078;2023-09-30T06:11:24;7.67;;;2.30;;
77191;SDS011;66172;48.526;8.078;2023-09-30T06:13:51;7.15;;;2.00;;
77191;SDS011;66172;48.526;8.078;2023-09-30T06:16:18;6.53;;;1.90;;
77191;SDS011;66172;48.526;8.078;2023-09-30T06:18:45;5.07;;;1.70;;
77191;SDS011;66172;48.526;8.078;2023-09-30T06:21:11;6.38;;;1.80;;
77191;SDS011;66172;48.526;8.078;2023-09-30T06:23:40;9.80;;;2.20;;
77191;SDS011;66172;48.526;8.078;2023-09-30T06:26:06;6.07;;;1.75;;
77191;SDS011;66172;48.526;8.078;2023-09-30T06:28:32;9.45;;;2.30;;
77191;SDS011;66172;48.526;8.078;2023-09-30T06:30:59;7.10;;;1.95;;
77191;SDS011;66172;48.526;8.078;2023-09-30T06:33:25;7.03;;;2.13;;
77191;SDS011;66172;48.526;8.078;2023-09-30T06:35:51;8.57;;;2.10;;
77191;SDS011;66172;48.526;8.078;2023-09-30T06:38:20;7.95;;;1.60;;
77191;SDS011;66172;48.526;8.078;2023-09-30T06:40:47;6.63;;;1.90;;
77191;SDS011;66172;48.526;8.078;2023-09-30T06:43:14;6.20;;;2.25;;
77191;SDS011;66172;48.526;8.078;2023-09-30T06:45:43;7.93;;;2.27;;
77191;SDS011;66172;48.526;8.078;2023-09-30T06:48:10;6.50;;;2.17;;
77191;SDS011;66172;48.526;8.078;2023-09-30T06:50:46;5.97;;;1.98;;
77191;SDS011;66172;48.526;8.078;2023-09-30T06:53:17;9.10;;;2.75;;
77191;SDS011;66172;48.526;8.078;2023-09-30T06:55:44;11.57;;;2.22;;
77191;SDS011;66172;48.526;8.078;2023-09-30T06:58:10;8.67;;;2.07;;
77191;SDS011;66172;48.526;8.078;2023-09-30T07:00:37;7.82;;;2.10;;
77191;SDS011;66172;48.526;8.078;2023-09-30T07:03:04;9.00;;;2.30;;
77191;SDS011;66172;48.526;8.078;2023-09-30T07:05:30;7.05;;;2.33;;
77191;SDS011;66172;48.526;8.078;2023-09-30T07:07:55;6.43;;;2.40;;
77191;SDS011;66172;48.526;8.078;2023-09-30T07:10:21;8.10;;;2.30;;
77191;SDS011;66172;48.526;8.078;2023-09-30T07:12:47;8.57;;;2.40;;
77191;SDS011;66172;48.526;8.078;2023-09-30T07:15:13;8.23;;;2.58;;
77191;SDS011;66172;48.526;8.078;2023-09-30T07:17:39;6.90;;;2.47;;
77191;SDS011;66172;48.526;8.078;2023-09-30T07:20:06;9.38;;;2.40;;
77191;SDS011;66172;48.526;8.078;2023-09-30T07:22:32;10.02;;;3.03;;
77191;SDS011;66172;48.526;8.078;2023-09-30T07:24:59;8.77;;;2.63;;
77191;SDS011;66172;48.526;8.078;2023-09-30T07:27:25;7.97;;;2.58;;
77191;SDS011;66172;48.526;8.078;2023-09-30T07:29:51;6.13;;;2.30;;
77191;SDS011;66172;48.526;8.078;2023-09-30T07:32:17;7.93;;;2.58;;
77191;SDS011;66172;48.526;8.078;2023-09-30T07:34:43;7.07;;;2.50;;
77191;SDS011;66172;48.526;8.078;2023-09-30T07:37:11;7.97;;;2.45;;
77191;SDS011;66172;48.526;8.078;2023-09-30T07:39:39;8.30;;;2.87;;
77191;SDS011;66172;48.526;8.078;2023-09-30T07:42:05;6.85;;;2.70;;
77191;SDS011;66172;48.526;8.078;2023-09-30T07:44:34;7.60;;;2.60;;
77191;SDS011;66172;48.526;8.078;2023-09-30T07:47:03;7.32;;;2.42;;
77191;SDS011;66172;48.526;8.078;2023-09-30T07:49:29;7.70;;;2.53;;
77191;SDS011;66172;48.526;8.078;2023-09-30T07:51:55;7.05;;;2.60;;
77191;SDS011;66172;48.526;8.078;2023-09-30T07:54:21;9.13;;;2.90;;
77191;SDS011;66172;48.526;8.078;2023-09-30T07:56:47;10.55;;;3.10;;
77191;SDS011;66172;48.526;8.078;2023-09-30T07:59:14;8.18;;;3.00;;
77191;SDS011;66172;48.526;8.078;2023-09-30T08:01:41;7.10;;;2.57;;
77191;SDS011;66172;48.526;8.078;2023-09-30T08:04:07;9.18;;;2.83;;
77191;SDS011;66172;48.526;8.078;2023-09-30T08:06:33;7.82;;;2.90;;
77191;SDS011;66172;48.526;8.078;2023-09-30T08:08:59;9.35;;;2.88;;
77191;SDS011;66172;48.526;8.078;2023-09-30T08:11:25;9.50;;;3.20;;
77191;SDS011;66172;48.526;8.078;2023-09-30T08:13:53;9.38;;;3.30;;
77191;SDS011;66172;48.526;8.078;2023-09-30T08:16:20;7.95;;;3.03;;
77191;SDS011;66172;48.526;8.078;2023-09-30T08:18:46;8.57;;;3.35;;
77191;SDS011;66172;48.526;8.078;2023-09-30T08:21:12;7.87;;;3.20;;
77191;SDS011;66172;48.526;8.078;2023-09-30T08:23:37;10.75;;;3.25;;
77191;SDS011;66172;48.526;8.078;2023-09-30T08:26:05;7.18;;;3.35;;
77191;SDS011;66172;48.526;8.078;2023-09-30T08:28:31;10.65;;;3.60;;
77191;SDS011;66172;48.526;8.078;2023-09-30T08:31:04;9.60;;;3.77;;
77191;SDS011;66172;48.526;8.078;2023-09-30T08:33:31;8.95;;;3.70;;
77191;SDS011;66172;48.526;8.078;2023-09-30T08:36:03;8.85;;;3.70;;
77191;SDS011;66172;48.526;8.078;2023-09-30T08:38:37;7.10;;;3.80;;
77191;SDS011;66172;48.526;8.078;2023-09-30T08:41:04;10.48;;;4.13;;
77191;SDS011;66172;48.526;8.078;2023-09-30T08:43:30;10.53;;;4.33;;
77191;SDS011;66172;48.526;8.078;2023-09-30T08:45:58;9.07;;;4.10;;
77191;SDS011;66172;48.526;8.078;2023-09-30T08:48:26;8.02;;;3.92;;
77191;SDS011;66172;48.526;8.078;2023-09-30T08:50:53;9.57;;;3.92;;
77191;SDS011;66172;48.526;8.078;2023-09-30T08:53:23;9.85;;;3.88;;
77191;SDS011;66172;48.526;8.078;2023-09-30T08:55:53;8.70;;;3.57;;
77191;SDS011;66172;48.526;8.078;2023-09-30T08:58:20;8.60;;;3.30;;
77191;SDS011;66172;48.526;8.078;2023-09-30T09:00:49;9.57;;;3.67;;
77191;SDS011;66172;48.526;8.078;2023-09-30T09:03:17;8.07;;;3.15;;
77191;SDS011;66172;48.526;8.078;2023-09-30T09:05:44;8.25;;;3.33;;
77191;SDS011;66172;48.526;8.078;2023-09-30T09:08:10;7.63;;;3.20;;
77191;SDS011;66172;48.526;8.078;2023-09-30T09:10:46;8.70;;;3.17;;
77191;SDS011;66172;48.526;8.078;2023-09-30T09:13:20;9.23;;;3.60;;
77191;SDS011;66172;48.526;8.078;2023-09-30T09:15:46;8.90;;;3.22;;
77191;SDS011;66172;48.526;8.078;2023-09-30T09:18:12;8.40;;;3.40;;
77191;SDS011;66172;48.526;8.078;2023-09-30T09:20:39;8.45;;;3.08;;
77191;SDS011;66172;48.526;8.078;2023-09-30T09:23:06;8.45;;;3.33;;
77191;SDS011;66172;48.526;8.078;2023-09-30T09:25:37;9.25;;;3.15;;
77191;SDS011;66172;48.526;8.078;2023-09-30T09:28:04;8.35;;;3.13;;
77191;SDS011;66172;48.526;8.078;2023-09-30T09:30:30;9.20;;;3.53;;
77191;SDS011;66172;48.526;8.078;2023-09-30T09:33:02;7.28;;;3.17;;
77191;SDS011;66172;48.526;8.078;2023-09-30T09:35:33;7.68;;;3.67;;
77191;SDS011;66172;48.526;8.078;2023-09-30T09:38:04;8.43;;;3.20;;
77191;SDS011;66172;48.526;8.078;2023-09-30T09:40:34;9.70;;;3.30;;
77191;SDS011;66172;48.526;8.078;2023-09-30T09:43:03;7.85;;;3.03;;
77191;SDS011;66172;48.526;8.078;2023-09-30T09:45:34;8.85;;;3.15;;
77191;SDS011;66172;48.526;8.078;2023-09-30T09:48:01;7.32;;;3.10;;
77191;SDS011;66172;48.526;8.078;2023-09-30T09:50:30;7.47;;;2.90;;
77191;SDS011;66172;48.526;8.078;2023-09-30T09:53:01;7.40;;;3.10;;
77191;SDS011;66172;48.526;8.078;2023-09-30T09:55:28;8.25;;;2.95;;
77191;SDS011;66172;48.526;8.078;2023-09-30T09:57:54;8.57;;;3.30;;
77191;SDS011;66172;48.526;8.078;2023-09-30T10:00:21;8.68;;;3.40;;
77191;SDS011;66172;48.526;8.078;2023-09-30T10:02:49;6.18;;;2.75;;
77191;SDS011;66172;48.526;8.078;2023-09-30T10:05:16;7.33;;;2.80;;
77191;SDS011;66172;48.526;8.078;2023-09-30T10:07:51;8.90;;;3.30;;
77191;SDS011;66172;48.526;8.078;2023-09-30T10:10:23;7.90;;;2.70;;
77191;SDS011;66172;48.526;8.078;2023-09-30T10:12:50;10.57;;;3.00;;
77191;SDS011;66172;48.526;8.078;2023-09-30T10:18:01;9.43;;;2.90;;
77191;SDS011;66172;48.526;8.078;2023-09-30T10:20:33;8.80;;;2.85;;
77191;SDS011;66172;48.526;8.078;2023-09-30T10:23:19;6.38;;;2.40;;
77191;SDS011;66172;48.526;8.078;2023-09-30T10:26:13;6.75;;;2.60;;
77191;SDS011;66172;48.526;8.078;2023-09-30T10:28:43;8.45;;;2.97;;
77191;SDS011;66172;48.526;8.078;2023-09-30T10:31:15;8.43;;;3.00;;
77191;SDS011;66172;48.526;8.078;2023-09-30T10:36:32;8.85;;;2.80;;
77191;SDS011;66172;48.526;8.078;2023-09-30T10:38:59;9.27;;;2.75;;
77191;SDS011;66172;48.526;8.078;2023-09-30T10:46:54;7.03;;;2.83;;
77191;SDS011;66172;48.526;8.078;2023-09-30T10:51:53;7.85;;;3.08;;
77191;SDS011;66172;48.526;8.078;2023-09-30T10:54:27;7.22;;;2.60;;
77191;SDS011;66172;48.526;8.078;2023-09-30T10:56:57;7.80;;;2.53;;
77191;SDS011;66172;48.526;8.078;2023-09-30T10:59:25;8.57;;;2.50;;
77191;SDS011;66172;48.526;8.078;2023-09-30T11:01:53;6.97;;;2.85;;
77191;SDS011;66172;48.526;8.078;2023-09-30T11:04:19;7.22;;;2.70;;
77191;SDS011;66172;48.526;8.078;2023-09-30T11:06:45;7.88;;;2.67;;
77191;SDS011;66172;48.526;8.078;2023-09-30T11:09:15;7.67;;;2.60;;
77191;SDS011;66172;48.526;8.078;2023-09-30T11:11:43;6.30;;;2.70;;
77191;SDS011;66172;48.526;8.078;2023-09-30T11:16:43;8.05;;;3.15;;
77191;SDS011;66172;48.526;8.078;2023-09-30T11:19:13;9.73;;;3.65;;
77191;SDS011;66172;48.526;8.078;2023-09-30T11:21:41;8.60;;;3.23;;
77191;SDS011;66172;48.526;8.078;2023-09-30T11:24:09;8.02;;;3.25;;
77191;SDS011;66172;48.526;8.078;2023-09-30T11:26:35;9.57;;;3.50;;
77191;SDS011;66172;48.526;8.078;2023-09-30T11:29:04;8.40;;;3.30;;
77191;SDS011;66172;48.526;8.078;2023-09-30T11:31:44;8.52;;;3.13;;
77191;SDS011;66172;48.526;8.078;2023-09-30T11:34:12;11.07;;;2.90;;
77191;SDS011;66172;48.526;8.078;2023-09-30T11:36:40;9.23;;;3.13;;
77191;SDS011;66172;48.526;8.078;2023-09-30T11:39:08;8.20;;;3.25;;
77191;SDS011;66172;48.526;8.078;2023-09-30T11:41:38;10.70;;;3.70;;
77191;SDS011;66172;48.526;8.078;2023-09-30T11:44:06;9.45;;;3.42;;
77191;SDS011;66172;48.526;8.078;2023-09-30T11:46:49;7.93;;;2.90;;
77191;SDS011;66172;48.526;8.078;2023-09-30T11:51:51;9.05;;;3.20;;
77191;SDS011;66172;48.526;8.078;2023-09-30T11:54:18;9.30;;;3.53;;
77191;SDS011;66172;48.526;8.078;2023-09-30T11:56:44;11.47;;;3.43;;
77191;SDS011;66172;48.526;8.078;2023-09-30T11:59:10;8.30;;;3.47;;
77191;SDS011;66172;48.526;8.078;2023-09-30T12:01:36;9.80;;;3.65;;
77191;SDS011;66172;48.526;8.078;2023-09-30T12:04:03;9.77;;;3.20;;
77191;SDS011;66172;48.526;8.078;2023-09-30T12:06:29;12.25;;;4.20;;
77191;SDS011;66172;48.526;8.078;2023-09-30T12:08:55;9.83;;;3.87;;
77191;SDS011;66172;48.526;8.078;2023-09-30T12:11:21;9.70;;;3.45;;
77191;SDS011;66172;48.526;8.078;2023-09-30T12:13:49;8.55;;;3.53;;
77191;SDS011;66172;48.526;8.078;2023-09-30T12:16:16;9.63;;;3.45;;
77191;SDS011;66172;48.526;8.078;2023-09-30T12:18:42;10.70;;;4.10;;
77191;SDS011;66172;48.526;8.078;2023-09-30T12:21:11;8.27;;;3.17;;
77191;SDS011;66172;48.526;8.078;2023-09-30T12:23:39;7.65;;;3.30;;
77191;SDS011;66172;48.526;8.078;2023-09-30T12:26:05;7.65;;;3.30;;
77191;SDS011;66172;48.526;8.078;2023-09-30T12:28:32;8.45;;;2.95;;
77191;SDS011;66172;48.526;8.078;2023-09-30T12:30:59;7.88;;;3.30;;
77191;SDS011;66172;48.526;8.078;2023-09-30T12:33:28;8.27;;;3.33;;
77191;SDS011;66172;48.526;8.078;2023-09-30T12:35:56;9.07;;;3.60;;
77191;SDS011;66172;48.526;8.078;2023-09-30T12:38:24;10.20;;;3.90;;
77191;SDS011;66172;48.526;8.078;2023-09-30T12:40:51;10.95;;;3.72;;
77191;SDS011;66172;48.526;8.078;2023-09-30T12:43:19;10.02;;;3.80;;
77191;SDS011;66172;48.526;8.078;2023-09-30T12:45:45;13.10;;;4.33;;
77191;SDS011;66172;48.526;8.078;2023-09-30T12:48:13;12.90;;;4.78;;
77191;SDS011;66172;48.526;8.078;2023-09-30T12:50:43;9.95;;;3.53;;
77191;SDS011;66172;48.526;8.078;2023-09-30T12:53:11;12.05;;;4.10;;
77191;SDS011;66172;48.526;8.078;2023-09-30T12:55:37;10.25;;;4.03;;
77191;SDS011;66172;48.526;8.078;2023-09-30T12:58:03;11.87;;;4.07;;
77191;SDS011;66172;48.526;8.078;2023-09-30T13:00:30;9.85;;;3.90;;
77191;SDS011;66172;48.526;8.078;2023-09-30T13:02:56;9.82;;;4.05;;
77191;SDS011;66172;48.526;8.078;2023-09-30T13:05:23;10.63;;;3.80;;
77191;SDS011;66172;48.526;8.078;2023-09-30T13:07:49;11.27;;;4.43;;
77191;SDS011;66172;48.526;8.078;2023-09-30T13:10:15;11.90;;;4.65;;
77191;SDS011;66172;48.526;8.078;2023-09-30T13:12:41;10.93;;;4.40;;
77191;SDS011;66172;48.526;8.078;2023-09-30T13:15:07;10.77;;;4.10;;
77191;SDS011;66172;48.526;8.078;2023-09-30T13:17:34;11.13;;;4.13;;
77191;SDS011;66172;48.526;8.078;2023-09-30T13:20:00;11.45;;;4.00;;
77191;SDS011;66172;48.526;8.078;2023-09-30T13:22:30;10.07;;;3.60;;
77191;SDS011;66172;48.526;8.078;2023-09-30T13:25:00;9.35;;;3.45;;
77191;SDS011;66172;48.526;8.078;2023-09-30T13:27:26;10.57;;;3.92;;
77191;SDS011;66172;48.526;8.078;2023-09-30T13:29:52;9.90;;;3.80;;
77191;SDS011;66172;48.526;8.078;2023-09-30T13:32:20;9.95;;;3.85;;
77191;SDS011;66172;48.526;8.078;2023-09-30T13:34:46;10.20;;;4.10;;
77191;SDS011;66172;48.526;8.078;2023-09-30T13:37:12;13.57;;;4.75;;
77191;SDS011;66172;48.526;8.078;2023-09-30T13:39:38;11.53;;;3.90;;
77191;SDS011;66172;48.526;8.078;2023-09-30T13:42:03;12.32;;;4.63;;
77191;SDS011;66172;48.526;8.078;2023-09-30T13:44:29;10.20;;;3.83;;
77191;SDS011;66172;48.526;8.078;2023-09-30T13:46:55;10.07;;;4.23;;
77191;SDS011;66172;48.526;8.078;2023-09-30T13:49:21;10.02;;;3.95;;
77191;SDS011;66172;48.526;8.078;2023-09-30T13:51:47;12.85;;;4.78;;
77191;SDS011;66172;48.526;8.078;2023-09-30T13:54:14;10.40;;;3.88;;
77191;SDS011;66172;48.526;8.078;2023-09-30T13:56:41;11.63;;;4.27;;
77191;SDS011;66172;48.526;8.078;2023-09-30T13:59:08;10.52;;;3.97;;
77191;SDS011;66172;48.526;8.078;2023-09-30T14:01:33;9.48;;;4.00;;
77191;SDS011;66172;48.526;8.078;2023-09-30T14:04:01;11.38;;;4.45;;
77191;SDS011;66172;48.526;8.078;2023-09-30T14:06:27;10.83;;;4.20;;
77191;SDS011;66172;48.526;8.078;2023-09-30T14:08:55;11.38;;;4.43;;
77191;SDS011;66172;48.526;8.078;2023-09-30T14:11:21;11.18;;;4.75;;
77191;SDS011;66172;48.526;8.078;2023-09-30T14:13:47;11.30;;;4.45;;
77191;SDS011;66172;48.526;8.078;2023-09-30T14:16:14;10.87;;;4.27;;
77191;SDS011;66172;48.526;8.078;2023-09-30T14:18:40;11.52;;;4.50;;
77191;SDS011;66172;48.526;8.078;2023-09-30T14:21:06;12.15;;;4.47;;
77191;SDS011;66172;48.526;8.078;2023-09-30T14:23:32;12.77;;;4.90;;
77191;SDS011;66172;48.526;8.078;2023-09-30T14:25:58;12.27;;;4.80;;
77191;SDS011;66172;48.526;8.078;2023-09-30T14:28:25;12.25;;;4.40;;
77191;SDS011;66172;48.526;8.078;2023-09-30T14:30:51;10.93;;;4.10;;
77191;SDS011;66172;48.526;8.078;2023-09-30T14:33:17;10.82;;;4.10;;
77191;SDS011;66172;48.526;8.078;2023-09-30T14:35:45;11.60;;;4.33;;
77191;SDS011;66172;48.526;8.078;2023-09-30T14:38:11;10.27;;;4.35;;
77191;SDS011;66172;48.526;8.078;2023-09-30T14:40:38;10.07;;;4.07;;
77191;SDS011;66172;48.526;8.078;2023-09-30T14:43:05;13.05;;;4.60;;
77191;SDS011;66172;48.526;8.078;2023-09-30T14:45:32;12.30;;;4.35;;
77191;SDS011;66172;48.526;8.078;2023-09-30T14:47:57;11.63;;;4.67;;
77191;SDS011;66172;48.526;8.078;2023-09-30T14:50:23;10.25;;;4.22;;
77191;SDS011;66172;48.526;8.078;2023-09-30T14:52:49;14.50;;;4.45;;
77191;SDS011;66172;48.526;8.078;2023-09-30T14:55:15;11.57;;;4.70;;
77191;SDS011;66172;48.526;8.078;2023-09-30T14:57:41;13.10;;;5.10;;
77191;SDS011;66172;48.526;8.078;2023-09-30T15:00:08;10.73;;;4.57;;
77191;SDS011;66172;48.526;8.078;2023-09-30T15:02:36;12.95;;;4.68;;
77191;SDS011;66172;48.526;8.078;2023-09-30T15:05:04;12.35;;;4.68;;